Time;durP1;ratioP1;P1;durP2;ratioP2;P2;SDS_P1;SDS_P2;PMS_P1;PMS_P2;Temp;Humidity;BMP_temperature;BMP_pressure;BME280_temperature;BME280_humidity;BME280_pressure;Samples;Min_cycle;Max_cycle;Signal;HPM_P1;HPM_P2
2021/10/04 06:43:17;;;;;;;15.37;7.13;;;;;;;10.17;100.00;101318.88;1769268;78;21074;31
2021/10/04 06:45:43;;;;;;;19.03;8.10;;;;;;;10.49;100.00;101317.85;1766182;80;20995;-75
2021/10/04 06:48:10;;;;;;;15.65;7.53;;;;;;;10.70;100.00;101315.89;1707163;84;21535;-76
2021/10/04 06:50:37;;;;;;;22.35;8.80;;;;;;;10.95;100.00;101311.77;1716436;82;20974;-76
2021/10/04 06:53:04;;;;;;;18.37;7.67;;;;;;;11.15;100.00;101307.19;1727588;82;20973;-77
2021/10/04 06:55:31;;;;;;;21.07;11.88;;;;;;;11.31;100.00;101309.81;1765695;80;21474;-78
2021/10/04 06:57:58;;;;;;;23.07;9.83;;;;;;;11.43;100.00;101310.00;1774987;80;21010;-72
2021/10/04 07:00:25;;;;;;;18.05;8.23;;;;;;;11.56;100.00;101306.50;1781406;80;20978;-75
2021/10/04 07:02:52;;;;;;;17.12;7.53;;;;;;;11.70;100.00;101311.92;1760721;80;21479;-76
2021/10/04 07:05:19;;;;;;;19.60;7.55;;;;;;;11.85;100.00;101312.32;1777244;80;21467;-75
2021/10/04 07:07:48;;;;;;;32.30;20.95;;;;;;;12.00;100.00;101314.58;1788092;80;21490;-74
2021/10/04 07:10:15;;;;;;;19.30;10.65;;;;;;;12.15;100.00;101309.86;1775881;79;21116;-75
2021/10/04 07:12:43;;;;;;;24.35;10.70;;;;;;;12.39;100.00;101317.09;1771230;80;20994;-75
2021/10/04 07:15:11;;;;;;;20.23;8.33;;;;;;;12.54;100.00;101308.28;1784933;80;21017;-75
2021/10/04 07:17:39;;;;;;;33.38;12.43;;;;;;;12.69;100.00;101318.09;1766515;80;20997;-76
2021/10/04 07:20:06;;;;;;;22.00;8.60;;;;;;;12.76;100.00;101315.62;1786794;80;21010;-77
2021/10/04 07:22:35;;;;;;;21.95;7.65;;;;;;;12.87;100.00;101319.48;1787276;80;20998;-76
2021/10/04 07:25:04;;;;;;;20.43;7.72;;;;;;;12.80;100.00;101308.89;1762226;80;20997;-75
2021/10/04 07:27:31;;;;;;;48.63;14.10;;;;;;;12.77;100.00;101312.42;1762547;80;20966;-75
2021/10/04 07:29:58;;;;;;;30.32;12.20;;;;;;;12.85;100.00;101313.33;1763132;80;21022;-76
2021/10/04 07:32:25;;;;;;;20.62;8.13;;;;;;;13.14;100.00;101314.09;1772507;80;21037;-74
2021/10/04 07:34:52;;;;;;;16.67;7.50;;;;;;;13.52;100.00;101312.90;1767709;80;20982;-75
2021/10/04 07:37:19;;;;;;;17.90;7.95;;;;;;;13.66;100.00;101310.95;1783017;80;21426;-79
2021/10/04 07:39:45;;;;;;;15.53;6.78;;;;;;;13.73;100.00;101314.41;1781242;79;21010;-76
2021/10/04 07:42:12;;;;;;;13.45;6.70;;;;;;;13.65;100.00;101309.27;1773041;80;21029;-79
2021/10/04 07:44:39;;;;;;;15.08;6.60;;;;;;;13.57;100.00;101307.84;1761447;80;21063;-77
2021/10/04 07:47:05;;;;;;;17.90;6.45;;;;;;;13.64;100.00;101318.93;1768289;80;20983;-77
2021/10/04 07:49:32;;;;;;;17.35;6.62;;;;;;;13.73;100.00;101311.17;1758680;81;21050;-79
2021/10/04 07:52:00;;;;;;;21.87;6.95;;;;;;;13.88;100.00;101317.36;1748969;82;21488;-76
2021/10/04 07:54:28;;;;;;;18.17;6.55;;;;;;;14.06;100.00;101316.80;1749753;81;21452;-78
2021/10/04 07:56:54;;;;;;;16.20;6.62;;;;;;;14.26;100.00;101313.30;1779732;80;21102;-75
2021/10/04 07:59:41;;;;;;;17.17;6.30;;;;;;;14.35;100.00;101314.19;1776519;80;21535;-73
2021/10/04 08:02:09;;;;;;;17.55;6.83;;;;;;;14.38;100.00;101309.27;1629173;86;21147;-73
2021/10/04 08:04:36;;;;;;;15.80;6.12;;;;;;;15.06;100.00;101311.98;1685316;84;21596;-72
2021/10/04 08:07:03;;;;;;;14.65;5.95;;;;;;;15.06;100.00;101311.98;1691778;84;21013;-74
2021/10/04 08:09:30;;;;;;;65.57;13.03;;;;;;;15.52;100.00;101304.11;1688447;84;21080;-72
2021/10/04 08:11:57;;;;;;;26.77;7.95;;;;;;;15.86;100.00;101301.16;1673630;84;21018;-72
2021/10/04 08:14:24;;;;;;;31.77;9.05;;;;;;;16.05;97.89;101297.70;1666680;84;21014;-72
2021/10/04 08:16:51;;;;;;;36.08;8.70;;;;;;;16.06;89.28;101297.53;1672795;84;21073;-77
2021/10/04 08:19:18;;;;;;;27.75;8.45;;;;;;;16.11;90.93;101295.62;1662228;84;20999;-74
2021/10/04 08:21:46;;;;;;;67.42;12.40;;;;;;;16.25;85.37;101294.87;1684193;84;21124;-75
2021/10/04 08:24:14;;;;;;;15.63;6.65;;;;;;;16.41;84.25;101300.76;1685428;84;21004;-74
2021/10/04 08:26:41;;;;;;;15.25;5.72;;;;;;;16.44;75.36;101299.05;1676444;84;21080;-75
2021/10/04 08:29:07;;;;;;;11.63;5.67;;;;;;;16.26;75.92;101300.67;1694123;84;21071;-72
2021/10/04 08:31:34;;;;;;;10.53;5.22;;;;;;;16.14;73.51;101293.91;1696710;84;21078;-70
2021/10/04 08:34:03;;;;;;;11.48;5.22;;;;;;;16.11;72.67;101296.49;1673673;84;21624;-70
2021/10/04 08:36:30;;;;;;;11.05;5.45;;;;;;;16.03;69.56;101297.03;1664299;85;21538;-72
2021/10/04 08:38:57;;;;;;;18.60;5.83;;;;;;;15.99;70.74;101294.30;1678325;84;21108;-74
2021/10/04 08:41:24;;;;;;;16.97;6.28;;;;;;;16.11;72.49;101297.86;1649727;86;21102;-73
2021/10/04 08:43:54;;;;;;;15.65;6.10;;;;;;;16.22;69.83;101291.16;1667387;84;21008;-73
2021/10/04 08:46:21;;;;;;;49.42;10.32;;;;;;;16.25;69.53;101293.50;1693150;84;21050;-74
2021/10/04 08:48:48;;;;;;;25.50;6.58;;;;;;;16.27;73.17;101290.60;1696964;84;21087;-75
2021/10/04 08:51:17;;;;;;;38.00;8.43;;;;;;;16.51;64.50;101288.27;1681703;84;21017;-74
2021/10/04 08:53:45;;;;;;;17.87;5.37;;;;;;;16.82;62.88;101286.88;1667484;84;21076;-74
2021/10/04 08:56:12;;;;;;;26.37;7.40;;;;;;;17.04;52.65;101285.19;1684078;84;21045;-72
2021/10/04 08:58:40;;;;;;;52.83;9.78;;;;;;;17.02;51.52;101282.31;1721337;80;21013;-74
2021/10/04 09:01:09;;;;;;;15.68;5.28;;;;;;;17.19;54.11;101285.74;1719002;80;20994;-71
2021/10/04 09:03:48;;;;;;;31.30;6.78;;;;;;;17.35;50.50;101284.75;1736410;80;21057;-74
2021/10/04 09:06:38;;;;;;;16.90;4.75;;;;;;;17.27;48.93;101286.52;1745599;80;21065;-73
2021/10/04 09:09:11;;;;;;;43.38;9.30;;;;;;;17.09;47.02;101286.02;1754577;82;21041;-73
2021/10/04 09:11:49;;;;;;;10.25;4.97;;;;;;;16.99;50.11;101279.94;1779894;80;21515;-73
2021/10/04 09:14:19;;;;;;;47.95;11.25;;;;;;;17.09;48.84;101277.81;1756669;80;21051;-76
2021/10/04 09:17:02;;;;;;;19.75;5.92;;;;;;;17.19;51.33;101275.69;1727809;80;21012;-73
2021/10/04 09:19:39;;;;;;;50.25;11.45;;;;;;;17.49;51.61;101270.25;1783527;80;21029;-75
2021/10/04 09:22:17;;;;;;;26.73;6.33;;;;;;;17.66;50.71;101273.67;1738050;80;21029;-75
2021/10/04 09:25:03;;;;;;;18.80;4.80;;;;;;;17.80;50.31;101273.35;1741688;80;21057;-74
2021/10/04 09:27:39;;;;;;;12.37;4.30;;;;;;;17.81;46.17;101266.33;1764988;80;21042;-77
2021/10/04 09:30:12;;;;;;;28.27;8.25;;;;;;;17.60;45.53;101274.41;1769654;80;20998;-77
2021/10/04 09:32:44;;;;;;;;;;;;;;;17.38;46.52;101269.34;1750461;80;21486;-79
2021/10/04 09:35:21;;;;;;;20.85;6.35;;;;;;;17.35;49.44;101265.11;1782931;80;20107;-81
2021/10/04 09:37:52;;;;;;;23.30;6.37;;;;;;;17.41;46.40;101264.88;1772240;80;20962;-80
2021/10/04 09:40:38;;;;;;;21.93;5.83;;;;;;;17.28;47.26;101264.13;1755985;79;20999;-79
2021/10/04 09:43:12;;;;;;;18.65;5.40;;;;;;;17.22;47.75;101271.19;1781939;80;20966;-77
2021/10/04 09:45:39;;;;;;;30.15;7.70;;;;;;;17.22;47.35;101268.45;1757492;80;21045;-80
2021/10/04 09:48:12;;;;;;;43.33;9.33;;;;;;;17.17;46.92;101267.32;1721421;81;21096;-74
2021/10/04 09:50:39;;;;;;;30.88;7.22;;;;;;;17.07;45.47;101261.60;1779331;80;20973;-77
2021/10/04 09:53:12;;;;;;;34.98;21.37;;;;;;;17.07;50.27;101254.77;1777328;80;20971;-79
2021/10/04 09:55:47;;;;;;;11.28;5.05;;;;;;;17.34;49.45;101257.09;1768469;80;20968;-79
2021/10/04 09:58:18;;;;;;;14.87;5.30;;;;;;;17.59;44.47;101255.79;1731139;80;21004;-75
2021/10/04 10:00:53;;;;;;;14.70;5.03;;;;;;;17.71;44.65;101256.70;1727302;82;21527;-75
2021/10/04 10:03:22;;;;;;;12.90;4.72;;;;;;;17.70;42.03;101263.20;1710915;82;21031;-79
2021/10/04 10:05:53;;;;;;;34.18;9.55;;;;;;;17.40;42.09;101253.60;1722752;82;21021;-76
2021/10/04 10:08:22;;;;;;;22.48;6.28;;;;;;;17.05;43.55;101252.74;1733664;82;20987;-74
2021/10/04 10:10:51;;;;;;;41.60;8.30;;;;;;;16.83;44.90;101246.74;1700723;83;21210;-76
2021/10/04 10:13:21;;;;;;;41.90;9.28;;;;;;;16.68;46.14;101248.91;1697583;83;21010;-75
2021/10/04 10:16:16;;;;;;;28.73;9.35;;;;;;;16.63;47.08;101244.50;1669276;86;21081;-73
2021/10/04 10:18:57;;;;;;;15.15;4.97;;;;;;;16.81;49.00;101237.89;1676493;84;21049;-74
2021/10/04 10:21:27;;;;;;;26.35;5.90;;;;;;;17.22;48.80;101237.55;1657672;85;21033;-73
2021/10/04 10:23:59;;;;;;;27.80;7.30;;;;;;;17.36;46.22;101233.99;1698818;84;21081;-75
2021/10/04 10:26:37;;;;;;;22.80;7.08;;;;;;;17.23;43.45;101232.43;1639675;86;21013;-75
2021/10/04 10:29:21;;;;;;;39.42;9.18;;;;;;;16.90;42.52;101227.25;1702689;84;21073;-74
2021/10/04 10:31:59;;;;;;;15.18;4.55;;;;;;;16.64;44.21;101227.59;1659803;86;21067;-75
2021/10/04 10:34:36;;;;;;;16.97;4.70;;;;;;;16.59;44.03;101223.19;1702167;84;21073;-74
2021/10/04 10:37:20;;;;;;;46.90;15.30;;;;;;;16.59;42.95;101228.16;1652200;86;21547;-73
2021/10/04 10:39:57;;;;;;;52.17;14.65;;;;;;;16.52;42.50;101227.19;1685846;84;21050;-76
2021/10/04 10:42:28;;;;;;;24.27;8.70;;;;;;;16.41;42.14;101225.69;1668286;84;21063;-75
2021/10/04 10:45:07;;;;;;;51.25;12.23;;;;;;;16.30;41.48;101220.13;1668000;83;21084;-74
2021/10/04 10:48:09;;;;;;;78.52;19.70;;;;;;;16.21;42.20;101213.55;1693178;84;21096;-76
2021/10/04 10:50:42;;;;;;;83.52;17.70;;;;;;;16.14;42.84;101218.88;1658612;86;21105;-74
2021/10/04 10:53:26;;;;;;;49.15;11.63;;;;;;;15.99;44.50;101217.43;1702308;84;21037;-77
2021/10/04 10:56:00;;;;;;;95.00;15.30;;;;;;;15.94;44.88;101217.95;1647140;87;21541;-74
2021/10/04 10:58:33;;;;;;;44.23;8.98;;;;;;;15.84;45.07;101220.55;1685103;84;21033;-75
2021/10/04 11:01:16;;;;;;;59.38;11.68;;;;;;;15.65;44.65;101218.56;1621979;88;21090;-74
2021/10/04 11:03:53;;;;;;;52.75;11.28;;;;;;;15.49;45.92;101215.87;1609117;88;21113;-75
2021/10/04 11:06:42;;;;;;;80.35;15.03;;;;;;;15.42;47.69;101216.23;1600054;88;21599;-75
2021/10/04 11:09:10;;;;;;;49.40;11.28;;;;;;;15.41;49.38;101214.02;1602636;87;21069;-75
2021/10/04 11:11:40;;;;;;;42.67;10.38;;;;;;;15.47;51.04;101209.22;1662769;86;21018;-78
2021/10/04 11:14:10;;;;;;;36.68;8.48;;;;;;;15.56;52.03;101214.14;1647144;86;21592;-77
2021/10/04 11:16:49;;;;;;;21.12;6.20;;;;;;;15.62;52.84;101212.61;1632484;87;21089;-74
2021/10/04 11:19:25;;;;;;;73.28;14.98;;;;;;;15.62;52.57;101211.25;1602225;89;21077;-75
2021/10/04 11:21:52;;;;;;;55.70;12.68;;;;;;;15.53;51.25;101207.17;1659896;86;21021;-74
2021/10/04 11:24:20;;;;;;;33.63;8.93;;;;;;;15.46;52.09;101211.62;1631215;87;21024;-80
2021/10/04 11:26:47;;;;;;;71.45;15.00;;;;;;;15.45;54.62;101209.91;1630711;88;21001;-74
2021/10/04 11:29:16;;;;;;;98.90;18.65;;;;;;;15.49;55.50;101209.05;1617767;88;21130;-74
2021/10/04 11:31:46;;;;;;;60.88;13.15;;;;;;;15.56;54.38;101204.59;1616108;87;21499;-76
2021/10/04 11:34:17;;;;;;;52.38;12.18;;;;;;;15.63;53.45;101198.78;1617644;89;21034;-76
2021/10/04 11:36:54;;;;;;;51.80;11.93;;;;;;;15.66;50.79;101212.06;1612697;89;21598;-77
2021/10/04 11:39:30;;;;;;;59.25;12.45;;;;;;;15.70;50.45;101203.02;1639952;87;21053;-74
2021/10/04 11:42:06;;;;;;;39.58;10.10;;;;;;;15.81;49.59;101214.08;1612116;89;21121;-74
2021/10/04 11:44:40;;;;;;;89.37;22.02;;;;;;;15.85;49.22;101209.48;1495922;94;21752;-74
2021/10/04 11:47:08;;;;;;;91.60;17.70;;;;;;;15.79;47.49;101210.69;1464428;96;21612;-73
2021/10/04 11:49:39;;;;;;;37.95;9.60;;;;;;;15.74;47.56;101205.27;1470404;97;21582;-74
2021/10/04 11:52:15;;;;;;;30.88;6.75;;;;;;;15.72;49.73;101213.23;1471107;98;21108;-74
2021/10/04 11:54:51;;;;;;;62.78;14.18;;;;;;;15.74;51.60;101204.36;1470122;96;21129;-74
2021/10/04 11:57:26;;;;;;;57.73;16.23;;;;;;;15.79;51.10;101207.44;1476052;96;21091;-74
2021/10/04 11:59:56;;;;;;;82.97;17.75;;;;;;;15.77;50.05;101206.77;1485495;96;21045;-74
2021/10/04 12:02:34;;;;;;;39.83;9.63;;;;;;;15.82;52.01;101203.52;1489017;96;21141;-73
2021/10/04 12:05:25;;;;;;;65.60;12.90;;;;;;;15.86;53.58;101198.88;1488909;94;21106;-73
2021/10/04 12:08:06;;;;;;;31.70;7.53;;;;;;;15.94;54.91;101199.37;1505736;94;21068;-75
2021/10/04 12:10:46;;;;;;;42.62;11.22;;;;;;;15.98;53.15;101199.87;1489866;96;21581;-74
2021/10/04 12:13:17;;;;;;;59.65;14.93;;;;;;;16.08;53.54;101194.53;1507766;95;21082;-74
2021/10/04 12:15:47;;;;;;;;;;;;;;;16.29;54.25;101197.98;1499432;93;21074;-75
2021/10/04 12:18:29;;;;;;;118.72;20.48;;;;;;;16.54;53.31;101202.41;1494437;96;20121;-73
2021/10/04 12:21:27;;;;;;;68.72;15.93;;;;;;;16.65;50.24;101197.38;1451998;98;21078;-75
2021/10/04 12:24:11;;;;;;;25.20;7.60;;;;;;;16.64;48.11;101192.97;1442688;98;21127;-77
2021/10/04 12:27:02;;;;;;;27.98;8.68;;;;;;;16.73;47.85;101198.34;1448760;99;21121;-76
2021/10/04 12:29:48;;;;;;;37.45;6.87;;;;;;;16.75;46.53;101194.41;1447818;97;21706;-79
2021/10/04 12:32:26;;;;;;;50.65;11.53;;;;;;;16.78;46.38;101196.75;1448548;99;21112;-75
2021/10/04 12:35:09;;;;;;;22.95;7.62;;;;;;;16.73;46.99;101192.35;1455223;98;21542;-74
2021/10/04 12:37:55;;;;;;;28.42;8.00;;;;;;;16.74;48.42;101192.70;1447883;99;21093;-75
2021/10/04 12:40:44;;;;;;;44.25;11.05;;;;;;;16.80;48.03;101191.98;1439307;96;21707;-75
2021/10/04 12:43:18;;;;;;;13.28;4.75;;;;;;;16.92;47.07;101187.46;1480424;94;21130;-76
2021/10/04 12:46:02;;;;;;;22.13;6.28;;;;;;;16.96;44.77;101194.25;1533564;92;21146;-74
2021/10/04 12:48:31;;;;;;;55.35;12.93;;;;;;;16.91;44.88;101191.21;1494162;94;21590;-74
2021/10/04 12:51:17;;;;;;;30.88;9.13;;;;;;;16.85;46.29;101189.55;1497535;95;21101;-73
2021/10/04 12:53:55;;;;;;;22.42;7.55;;;;;;;16.80;45.37;101187.88;1509514;94;21580;-74
2021/10/04 12:56:27;;;;;;;13.72;5.30;;;;;;;16.73;46.61;101191.52;1508002;94;21092;-75
2021/10/04 12:59:06;;;;;;;40.75;11.33;;;;;;;16.62;46.00;101184.08;1505952;94;21141;-73
2021/10/04 13:01:34;;;;;;;66.15;16.55;;;;;;;16.47;46.35;101190.86;1495890;95;21108;-73
2021/10/04 13:04:08;;;;;;;42.88;12.45;;;;;;;16.37;46.84;101188.88;1490585;96;21073;-75
2021/10/04 13:06:38;;;;;;;42.08;13.18;;;;;;;16.30;46.84;101189.27;1474260;97;21690;-75
2021/10/04 13:09:05;;;;;;;45.48;14.35;;;;;;;16.20;46.51;101196.34;1489899;96;21085;-76
2021/10/04 13:11:33;;;;;;;94.42;18.52;;;;;;;16.08;47.34;101197.78;1483061;95;21547;-75
2021/10/04 13:14:03;;;;;;;55.98;15.13;;;;;;;16.00;48.00;101200.54;1461123;98;21131;-74
2021/10/04 13:16:31;;;;;;;32.70;9.03;;;;;;;15.92;48.92;101202.80;1482984;95;21021;-76
2021/10/04 13:18:58;;;;;;;57.27;15.40;;;;;;;15.84;49.67;101205.03;1486734;95;21106;-77
2021/10/04 13:21:25;;;;;;;77.03;23.77;;;;;;;15.72;49.38;101207.28;1489945;95;21098;-79
2021/10/04 13:23:52;;;;;;;74.10;22.20;;;;;;;15.66;50.29;101204.41;1487821;95;21103;-80
2021/10/04 13:26:20;;;;;;;52.10;17.02;;;;;;;15.63;51.45;101204.75;1564754;90;21049;-82
2021/10/04 13:28:48;;;;;;;51.08;17.73;;;;;;;15.57;50.67;101203.06;1589955;90;21289;-79
2021/10/04 13:31:15;;;;;;;32.93;12.43;;;;;;;15.54;50.87;101201.20;1587392;90;21111;-83
2021/10/04 13:33:44;;;;;;;75.80;16.87;;;;;;;15.45;49.28;101204.47;1561147;92;21159;-80
2021/10/04 13:36:11;;;;;;;38.28;16.12;;;;;;;15.35;49.19;101207.40;1586318;90;21085;-80
2021/10/04 13:38:40;;;;;;;92.65;26.37;;;;;;;15.30;48.59;101213.88;1592375;90;21047;-79
2021/10/04 13:41:09;;;;;;;202.05;120.05;;;;;;;15.24;50.14;101210.47;1562499;90;21510;-80
2021/10/04 13:43:37;;;;;;;49.23;23.20;;;;;;;15.22;52.24;101208.44;1516454;94;21053;-78
2021/10/04 13:46:05;;;;;;;67.12;24.05;;;;;;;15.19;50.79;101204.20;1534992;92;21074;-82
2021/10/04 13:48:32;;;;;;;51.20;21.02;;;;;;;15.13;51.02;101204.88;1534419;92;21178;-79
2021/10/04 13:50:59;;;;;;;86.92;35.80;;;;;;;15.15;52.55;101211.52;1551299;92;21110;-78
2021/10/04 13:53:27;;;;;;;72.70;25.30;;;;;;;15.11;54.06;101208.80;1536809;92;21054;-79
2021/10/04 13:55:54;;;;;;;115.60;74.67;;;;;;;15.11;54.06;101208.80;1517508;95;21078;-82
2021/10/04 13:58:21;;;;;;;93.37;47.93;;;;;;;15.09;54.32;101211.70;1509596;95;21049;-80
2021/10/04 14:00:48;;;;;;;99.35;53.25;;;;;;;15.06;55.07;101214.76;1504947;94;21148;-77
2021/10/04 14:03:15;;;;;;;66.53;39.88;;;;;;;15.02;55.50;101212.05;1575126;90;21082;-76
2021/10/04 14:05:42;;;;;;;75.10;45.55;;;;;;;14.98;56.79;101212.06;1660832;82;21012;-84
2021/10/04 14:08:09;;;;;;;47.30;28.15;;;;;;;14.92;57.91;101209.48;1731372;82;21022;-74
2021/10/04 14:10:36;;;;;;;40.52;23.47;;;;;;;14.86;60.55;101208.83;1712283;84;21100;-77
2021/10/04 14:13:03;;;;;;;47.65;24.25;;;;;;;14.81;60.51;101213.92;1723772;82;21013;-77
2021/10/04 14:15:31;;;;;;;37.30;20.50;;;;;;;14.76;61.22;101212.22;1739365;82;21008;-78
2021/10/04 14:17:58;;;;;;;31.05;15.58;;;;;;;14.71;61.31;101211.36;1736808;82;21527;-82
2021/10/04 14:20:25;;;;;;;23.20;8.88;;;;;;;14.64;62.15;101214.42;1738189;82;21053;-75
2021/10/04 14:22:52;;;;;;;25.40;8.93;;;;;;;14.55;62.75;101214.89;1735910;82;21017;-77
2021/10/04 14:25:20;;;;;;;20.82;8.15;;;;;;;14.49;64.98;101217.45;1737996;82;21060;-82
2021/10/04 14:27:48;;;;;;;19.90;7.83;;;;;;;14.43;66.49;101213.02;1738804;82;21053;-82
2021/10/04 14:30:17;;;;;;;21.97;8.05;;;;;;;14.38;66.46;101217.27;1685548;82;21013;-82
2021/10/04 14:32:45;;;;;;;13.70;6.40;;;;;;;14.30;67.79;101209.92;1707747;82;21081;-83
2021/10/04 14:37:42;;;;;;;16.97;6.17;;;;;;;14.10;71.99;101212.09;1615962;88;21050;-84
2021/10/04 14:40:10;;;;;;;19.67;6.35;;;;;;;14.00;74.05;101213.58;1615612;89;21534;-84
2021/10/04 14:42:37;;;;;;;17.62;6.30;;;;;;;13.91;75.87;101218.66;1615130;89;21518;-83
2021/10/04 14:45:05;;;;;;;22.55;8.53;;;;;;;13.81;78.36;101214.72;1599154;89;21564;-83
2021/10/04 14:47:33;;;;;;;16.37;6.45;;;;;;;13.74;80.08;101220.95;1615218;89;21108;-84
2021/10/04 14:50:00;;;;;;;15.88;7.00;;;;;;;13.66;81.50;101228.05;1599474;90;21078;-83
2021/10/04 14:52:27;;;;;;;22.35;7.65;;;;;;;13.60;86.15;101225.16;1615661;89;21029;-83
2021/10/04 14:54:54;;;;;;;22.25;7.65;;;;;;;13.52;91.27;101225.95;1599525;90;21078;-84
2021/10/04 14:57:21;;;;;;;22.40;8.60;;;;;;;13.45;95.12;101231.16;1615495;89;21084;-84
2021/10/04 14:59:49;;;;;;;24.00;8.98;;;;;;;13.38;97.19;101229.27;1599375;90;21147;-84
2021/10/04 15:02:15;;;;;;;32.20;10.50;;;;;;;13.29;99.83;101226.45;1615542;89;21029;-84
2021/10/04 15:04:42;;;;;;;23.87;9.88;;;;;;;13.21;100.00;101226.42;1599908;90;21062;-84
2021/10/04 15:07:09;;;;;;;24.60;9.05;;;;;;;13.14;100.00;101231.27;1616579;89;21582;-84
2021/10/04 15:09:36;;;;;;;25.80;10.60;;;;;;;13.06;100.00;101230.20;1591685;90;21039;-84
2021/10/04 15:12:04;;;;;;;28.45;11.18;;;;;;;13.01;100.00;101233.05;1615973;89;21089;-83
2021/10/04 15:14:31;;;;;;;26.10;11.93;;;;;;;12.96;100.00;101232.66;1616035;89;21108;-83
2021/10/04 15:16:59;;;;;;;35.70;14.75;;;;;;;12.90;100.00;101243.14;1616185;89;21076;-83
2021/10/04 15:19:26;;;;;;;34.35;17.48;;;;;;;12.84;100.00;101237.00;1616106;89;21105;-84
2021/10/04 15:21:52;;;;;;;44.85;23.92;;;;;;;12.80;100.00;101239.69;1616449;89;21522;-84
2021/10/04 15:24:19;;;;;;;70.87;39.58;;;;;;;12.78;100.00;101238.96;1616022;89;21041;-84
2021/10/04 15:26:47;;;;;;;90.47;54.63;;;;;;;12.75;100.00;101241.14;1616001;89;21511;-83
2021/10/04 15:29:13;;;;;;;138.00;75.20;;;;;;;12.70;100.00;101245.70;1616190;89;21139;-84
2021/10/04 15:31:40;;;;;;;136.62;83.20;;;;;;;12.65;100.00;101246.14;1616320;89;21534;-84
2021/10/04 15:34:07;;;;;;;126.78;74.07;;;;;;;12.60;100.00;101243.05;1616247;89;21081;-85
2021/10/04 15:36:34;;;;;;;94.47;52.73;;;;;;;12.57;100.00;101247.92;1616334;89;21040;-84
2021/10/04 15:39:00;;;;;;;93.03;49.45;;;;;;;12.55;100.00;101246.72;1612458;89;21026;-85
2021/10/04 15:41:27;;;;;;;70.57;39.38;;;;;;;12.53;100.00;101249.59;1642442;86;21528;-84
2021/10/04 15:43:55;;;;;;;45.60;23.75;;;;;;;12.52;100.00;101249.77;1691116;85;21048;-84
2021/10/04 15:46:23;;;;;;;43.40;20.23;;;;;;;12.48;100.00;101243.80;1674550;85;21069;-84
2021/10/04 15:48:50;;;;;;;42.65;19.25;;;;;;;12.47;100.00;101243.44;1700008;83;20985;-83
2021/10/04 15:51:17;;;;;;;41.70;18.07;;;;;;;12.48;100.00;101239.73;1705240;84;21028;-84
2021/10/04 15:53:43;;;;;;;46.55;20.62;;;;;;;12.47;100.00;101242.59;1665798;86;21082;-84
2021/10/04 15:56:10;;;;;;;51.18;21.45;;;;;;;12.48;100.00;101242.92;1704871;84;21010;-84
2021/10/04 15:58:39;;;;;;;47.62;20.80;;;;;;;12.45;100.00;101245.45;1665610;86;21050;-84
2021/10/04 16:01:08;;;;;;;45.10;20.37;;;;;;;12.44;100.00;101243.73;1704948;84;21048;-84
2021/10/04 16:03:35;;;;;;;48.73;21.45;;;;;;;12.43;100.00;101252.89;1665702;86;21058;-84
2021/10/04 16:06:03;;;;;;;40.35;15.60;;;;;;;12.40;100.00;101251.84;1704533;84;21037;-83
2021/10/04 16:08:32;;;;;;;27.48;11.95;;;;;;;12.38;100.00;101243.48;1665456;86;21046;-85
2021/10/04 16:10:59;;;;;;;29.50;13.22;;;;;;;12.37;100.00;101246.71;1704598;84;21040;-85
2021/10/04 16:13:26;;;;;;;25.23;10.35;;;;;;;12.37;100.00;101244.52;1665616;86;21062;-84
2021/10/04 16:15:52;;;;;;;21.97;9.53;;;;;;;12.37;100.00;101241.80;1704972;84;20994;-84
2021/10/04 16:18:19;;;;;;;22.17;9.18;;;;;;;12.37;100.00;101241.80;1665457;84;21101;-84
2021/10/04 16:20:46;;;;;;;21.48;9.43;;;;;;;12.36;100.00;101236.89;1704942;84;21189;-84
2021/10/04 16:23:13;;;;;;;25.02;10.03;;;;;;;12.37;100.00;101247.23;1665674;86;21086;-83
2021/10/04 16:25:41;;;;;;;31.93;15.38;;;;;;;12.35;100.00;101237.88;1704593;84;21522;-85
2021/10/04 16:28:10;;;;;;;25.92;13.20;;;;;;;12.34;100.00;101241.59;1665292;86;21062;-85
2021/10/04 16:30:38;;;;;;;28.38;14.28;;;;;;;12.33;100.00;101238.03;1704983;84;21048;-84
2021/10/04 16:33:06;;;;;;;36.98;17.82;;;;;;;12.32;100.00;101239.53;1666011;86;21053;-83
2021/10/04 16:35:33;;;;;;;31.62;15.93;;;;;;;12.29;100.00;101231.22;1704961;84;21025;-83
2021/10/04 16:37:59;;;;;;;24.75;12.28;;;;;;;12.26;100.00;101234.73;1665163;86;21546;-83
2021/10/04 16:40:26;;;;;;;22.85;10.40;;;;;;;12.24;100.00;101228.62;1704841;84;21028;-84
2021/10/04 16:42:53;;;;;;;22.32;8.70;;;;;;;12.21;100.00;101231.62;1665490;86;21034;-83
2021/10/04 16:45:20;;;;;;;21.50;8.83;;;;;;;12.19;100.00;101230.94;1707488;84;21539;-85
2021/10/04 16:47:48;;;;;;;18.27;8.45;;;;;;;12.18;100.00;101236.00;1728272;83;21030;-84
2021/10/04 16:50:15;;;;;;;22.20;8.43;;;;;;;12.17;100.00;101229.73;1716731;83;21030;-83
2021/10/04 16:52:41;;;;;;;18.20;8.23;;;;;;;12.16;100.00;101233.43;1717352;84;21038;-84
2021/10/04 16:55:09;;;;;;;17.90;7.70;;;;;;;12.15;100.00;101224.97;1717358;83;21532;-83
2021/10/04 16:57:38;;;;;;;19.00;8.93;;;;;;;12.12;100.00;101229.33;1717021;83;21011;-83
2021/10/04 17:00:07;;;;;;;21.35;8.55;;;;;;;12.09;100.00;101226.91;1717090;83;21106;-83
2021/10/04 17:02:34;;;;;;;20.90;8.90;;;;;;;12.06;100.00;101233.50;1717218;83;21523;-83
2021/10/04 17:05:01;;;;;;;20.55;8.35;;;;;;;12.06;100.00;101234.86;1717167;84;21019;-83
2021/10/04 17:07:28;;;;;;;23.55;8.85;;;;;;;12.06;100.00;101229.95;1717395;84;21030;-83
2021/10/04 17:09:55;;;;;;;21.77;8.93;;;;;;;12.03;100.00;101231.09;1717429;84;21047;-84
2021/10/04 17:12:21;;;;;;;21.97;8.60;;;;;;;12.01;100.00;101239.03;1698650;84;21105;-84
2021/10/04 17:14:48;;;;;;;19.57;8.98;;;;;;;11.99;100.00;101250.50;1738039;83;21069;-82
2021/10/04 17:17:14;;;;;;;21.97;10.15;;;;;;;11.95;100.00;101240.47;1737768;83;21269;-83
2021/10/04 17:19:41;;;;;;;23.15;10.15;;;;;;;11.90;100.00;101241.42;1737691;83;21045;-82
2021/10/04 17:22:09;;;;;;;21.68;9.58;;;;;;;11.86;100.00;101244.05;1737293;83;21022;-83
2021/10/04 17:24:36;;;;;;;29.42;12.40;;;;;;;11.80;100.00;101248.22;1737368;83;21037;-82
2021/10/04 17:27:04;;;;;;;50.88;24.50;;;;;;;11.76;100.00;101249.02;1737320;83;20986;-83
2021/10/04 17:29:31;;;;;;;75.85;34.53;;;;;;;11.72;100.00;101252.17;1737424;82;21053;-82
2021/10/04 17:31:57;;;;;;;102.25;43.42;;;;;;;11.67;100.00;101251.28;1737815;83;20994;-84
2021/10/04 17:34:24;;;;;;;208.47;84.35;;;;;;;11.62;100.00;101246.80;1706609;83;21531;-84
2021/10/04 17:36:51;;;;;;;111.72;50.43;;;;;;;11.56;100.00;101249.61;1737830;82;20978;-83
2021/10/04 17:39:19;;;;;;;188.62;77.20;;;;;;;11.51;100.00;101253.73;1737709;82;21013;-84
2021/10/04 17:41:45;;;;;;;76.30;35.13;;;;;;;11.46;100.00;101258.27;1737817;82;21064;-84
2021/10/04 17:44:12;;;;;;;60.58;30.43;;;;;;;11.42;100.00;101250.09;1737860;83;21048;-84
2021/10/04 17:46:39;;;;;;;51.92;28.32;;;;;;;11.38;100.00;101249.53;1737925;82;21066;-83
2021/10/04 17:49:06;;;;;;;43.25;22.05;;;;;;;11.35;100.00;101255.23;1739217;82;21011;-83
2021/10/04 17:51:33;;;;;;;35.90;18.57;;;;;;;11.32;100.00;101264.15;1739658;82;21034;-83
2021/10/04 17:54:00;;;;;;;39.55;23.32;;;;;;;11.27;100.00;101264.58;1739569;82;20995;-84
2021/10/04 17:56:26;;;;;;;44.98;24.37;;;;;;;11.24;100.00;101266.72;1739601;82;21007;-82
2021/10/04 17:58:53;;;;;;;56.73;28.70;;;;;;;11.19;100.00;101268.02;1739633;82;21018;-85
2021/10/04 18:01:20;;;;;;;120.20;54.85;;;;;;;11.14;100.00;101267.59;1739636;82;20991;-85
2021/10/04 18:03:47;;;;;;;190.43;83.05;;;;;;;11.10;100.00;101272.95;1739121;82;21050;-82
2021/10/04 18:06:13;;;;;;;116.28;39.30;;;;;;;11.08;100.00;101261.91;1739496;82;20987;-84
2021/10/04 18:08:40;;;;;;;541.77;193.10;;;;;;;11.06;100.00;101273.38;1739222;82;21516;-85